sensor_id;sensor_type;location;lat;lon;timestamp;pressure;altitude;pressure_sealevel;temperature;humidity
55317;BME280;41178;48.956;8.130;2023-12-20T00:03:38;99732.03;;;11.18;44.84
55317;BME280;41178;48.956;8.130;2023-12-20T00:08:43;99823.28;;;10.57;45.55
55317;BME280;41178;48.956;8.130;2023-12-20T00:13:45;100018.84;;;9.45;45.95
55317;BME280;41178;48.956;8.130;2023-12-20T00:18:52;99795.97;;;10.32;46.25
55317;BME280;41178;48.956;8.130;2023-12-20T00:23:53;99842.59;;;9.60;47.23
55317;BME280;41178;48.956;8.130;2023-12-20T00:28:55;99856.81;;;9.29;46.93
55317;BME280;41178;48.956;8.130;2023-12-20T00:33:57;99948.84;;;8.03;48.96
55317;BME280;41178;48.956;8.130;2023-12-20T00:38:59;99751.16;;;9.03;48.75
55317;BME280;41178;48.956;8.130;2023-12-20T00:44:00;99722.25;;;9.76;47.89
55317;BME280;41178;48.956;8.130;2023-12-20T00:49:02;99792.09;;;9.96;46.92
55317;BME280;41178;48.956;8.130;2023-12-20T00:54:04;99921.97;;;10.37;45.23
55317;BME280;41178;48.956;8.130;2023-12-20T00:59:06;99944.00;;;9.06;47.51
55317;BME280;41178;48.956;8.130;2023-12-20T01:04:07;100026.84;;;8.22;48.54
55317;BME280;41178;48.956;8.130;2023-12-20T01:09:09;99795.91;;;11.36;45.12
55317;BME280;41178;48.956;8.130;2023-12-20T01:14:11;99921.25;;;7.78;50.11
55317;BME280;41178;48.956;8.130;2023-12-20T01:19:13;99710.06;;;11.44;45.08
55317;BME280;41178;48.956;8.130;2023-12-20T01:24:15;99697.66;;;10.19;47.59
55317;BME280;41178;48.956;8.130;2023-12-20T01:29:17;99748.38;;;10.57;46.10
55317;BME280;41178;48.956;8.130;2023-12-20T01:34:18;99785.84;;;10.72;45.78
55317;BME280;41178;48.956;8.130;2023-12-20T01:39:20;99831.47;;;11.81;43.66
55317;BME280;41178;48.956;8.130;2023-12-20T01:44:30;99793.69;;;12.33;43.04
55317;BME280;41178;48.956;8.130;2023-12-20T01:49:32;99739.66;;;11.36;45.27
55317;BME280;41178;48.956;8.130;2023-12-20T01:54:34;99824.19;;;11.39;44.92
55317;BME280;41178;48.956;8.130;2023-12-20T01:59:39;99901.69;;;10.43;46.01
55317;BME280;41178;48.956;8.130;2023-12-20T02:04:41;99791.59;;;12.22;43.75
55317;BME280;41178;48.956;8.130;2023-12-20T02:09:43;99747.31;;;11.83;44.70
55317;BME280;41178;48.956;8.130;2023-12-20T02:14:45;99814.25;;;12.19;43.79
55317;BME280;41178;48.956;8.130;2023-12-20T02:19:46;99837.69;;;10.71;45.32
55317;BME280;41178;48.956;8.130;2023-12-20T02:24:48;99831.00;;;12.49;43.06
55317;BME280;41178;48.956;8.130;2023-12-20T02:29:50;99847.03;;;12.99;42.40
55317;BME280;41178;48.956;8.130;2023-12-20T02:34:54;99854.44;;;13.39;41.34
55317;BME280;41178;48.956;8.130;2023-12-20T02:39:56;99923.41;;;12.90;42.21
55317;BME280;41178;48.956;8.130;2023-12-20T02:44:57;99897.59;;;12.96;42.23
55317;BME280;41178;48.956;8.130;2023-12-20T02:49:59;99909.38;;;12.16;43.06
55317;BME280;41178;48.956;8.130;2023-12-20T02:55:01;99912.63;;;12.33;42.77
55317;BME280;41178;48.956;8.130;2023-12-20T03:00:03;99815.44;;;12.66;43.25
55317;BME280;41178;48.956;8.130;2023-12-20T03:05:05;99795.16;;;12.07;44.44
55317;BME280;41178;48.956;8.130;2023-12-20T03:10:09;99824.63;;;12.50;43.18
55317;BME280;41178;48.956;8.130;2023-12-20T03:15:21;99749.34;;;11.16;46.12
55317;BME280;41178;48.956;8.130;2023-12-20T03:20:22;99764.91;;;13.32;42.67
55317;BME280;41178;48.956;8.130;2023-12-20T03:25:24;99892.03;;;12.19;43.37
55317;BME280;41178;48.956;8.130;2023-12-20T03:30:26;100052.72;;;10.86;44.58
55317;BME280;41178;48.956;8.130;2023-12-20T03:35:27;99905.59;;;12.89;42.47
55317;BME280;41178;48.956;8.130;2023-12-20T03:40:29;99791.69;;;14.07;41.23
55317;BME280;41178;48.956;8.130;2023-12-20T03:45:30;99990.81;;;11.94;43.01
55317;BME280;41178;48.956;8.130;2023-12-20T03:50:33;99965.06;;;11.33;44.91
55317;BME280;41178;48.956;8.130;2023-12-20T03:55:35;99939.91;;;12.37;42.74
55317;BME280;41178;48.956;8.130;2023-12-20T04:00:37;99861.81;;;12.32;43.54
55317;BME280;41178;48.956;8.130;2023-12-20T04:05:40;99878.94;;;12.31;43.36
55317;BME280;41178;48.956;8.130;2023-12-20T04:10:42;99964.59;;;9.36;47.57
55317;BME280;41178;48.956;8.130;2023-12-20T04:15:43;99928.91;;;11.74;44.52
55317;BME280;41178;48.956;8.130;2023-12-20T04:20:45;100028.47;;;9.54;46.82
55317;BME280;41178;48.956;8.130;2023-12-20T04:25:47;100034.38;;;11.51;43.80
55317;BME280;41178;48.956;8.130;2023-12-20T04:30:49;99891.28;;;12.75;42.88
55317;BME280;41178;48.956;8.130;2023-12-20T04:35:51;99864.63;;;13.50;41.86
55317;BME280;41178;48.956;8.130;2023-12-20T04:40:53;99983.03;;;11.99;43.35
55317;BME280;41178;48.956;8.130;2023-12-20T04:45:54;99908.06;;;12.34;43.55
55317;BME280;41178;48.956;8.130;2023-12-20T04:50:56;100023.78;;;11.73;43.88
55317;BME280;41178;48.956;8.130;2023-12-20T04:55:57;99865.91;;;13.67;41.80
55317;BME280;41178;48.956;8.130;2023-12-20T05:00:59;99981.03;;;11.26;44.83
55317;BME280;41178;48.956;8.130;2023-12-20T05:06:01;99870.00;;;13.08;42.64
55317;BME280;41178;48.956;8.130;2023-12-20T05:11:03;99938.47;;;12.41;43.13
55317;BME280;41178;48.956;8.130;2023-12-20T05:16:05;100012.47;;;12.72;42.18
55317;BME280;41178;48.956;8.130;2023-12-20T05:21:07;100053.72;;;11.91;43.79
55317;BME280;41178;48.956;8.130;2023-12-20T05:26:09;99963.41;;;13.90;41.40
55317;BME280;41178;48.956;8.130;2023-12-20T05:31:11;99878.44;;;11.99;44.86
55317;BME280;41178;48.956;8.130;2023-12-20T05:36:12;99936.91;;;13.32;42.29
55317;BME280;41178;48.956;8.130;2023-12-20T05:41:16;99874.50;;;14.51;41.05
55317;BME280;41178;48.956;8.130;2023-12-20T05:46:18;99911.81;;;13.66;41.84
55317;BME280;41178;48.956;8.130;2023-12-20T05:51:20;99934.50;;;13.15;42.92
55317;BME280;41178;48.956;8.130;2023-12-20T05:56:21;99966.16;;;13.48;41.73
55317;BME280;41178;48.956;8.130;2023-12-20T06:01:23;99939.69;;;13.17;42.41
55317;BME280;41178;48.956;8.130;2023-12-20T06:06:25;99948.38;;;13.54;41.29
55317;BME280;41178;48.956;8.130;2023-12-20T06:11:27;99989.31;;;12.28;43.29
55317;BME280;41178;48.956;8.130;2023-12-20T06:16:29;99992.59;;;11.57;44.32
55317;BME280;41178;48.956;8.130;2023-12-20T06:21:30;99937.63;;;14.22;40.75
55317;BME280;41178;48.956;8.130;2023-12-20T06:26:32;99945.03;;;12.82;42.82
55317;BME280;41178;48.956;8.130;2023-12-20T06:31:34;100074.28;;;13.85;40.14
55317;BME280;41178;48.956;8.130;2023-12-20T06:43:01;99972.16;;;17.18;36.46
55317;BME280;41178;48.956;8.130;2023-12-20T06:48:16;100015.69;;;14.22;40.02
55317;BME280;41178;48.956;8.130;2023-12-20T06:53:19;100168.28;;;10.67;44.07
55317;BME280;41178;48.956;8.130;2023-12-20T06:58:22;100028.44;;;13.02;41.59
55317;BME280;41178;48.956;8.130;2023-12-20T07:03:24;100016.44;;;12.98;41.34
55317;BME280;41178;48.956;8.130;2023-12-20T07:08:25;100077.44;;;12.09;42.02
55317;BME280;41178;48.956;8.130;2023-12-20T07:13:27;100019.56;;;10.18;45.65
55317;BME280;41178;48.956;8.130;2023-12-20T07:18:29;99954.22;;;8.61;48.98
55317;BME280;41178;48.956;8.130;2023-12-20T07:23:31;99854.56;;;9.41;47.34
55317;BME280;41178;48.956;8.130;2023-12-20T07:28:33;99990.25;;;10.25;44.77
55317;BME280;41178;48.956;8.130;2023-12-20T07:33:35;100019.31;;;11.95;41.65
55317;BME280;41178;48.956;8.130;2023-12-20T07:38:40;100023.66;;;13.25;39.70
55317;BME280;41178;48.956;8.130;2023-12-20T07:43:43;100174.38;;;11.53;41.03
55317;BME280;41178;48.956;8.130;2023-12-20T07:48:45;100158.34;;;10.84;41.70
55317;BME280;41178;48.956;8.130;2023-12-20T07:53:48;100119.59;;;11.56;40.29
55317;BME280;41178;48.956;8.130;2023-12-20T07:58:49;100076.13;;;10.61;42.34
55317;BME280;41178;48.956;8.130;2023-12-20T08:03:54;100167.44;;;11.59;40.91
55317;BME280;41178;48.956;8.130;2023-12-20T08:08:57;100133.09;;;12.37;40.13
55317;BME280;41178;48.956;8.130;2023-12-20T08:14:07;100192.44;;;10.90;41.26
55317;BME280;41178;48.956;8.130;2023-12-20T08:19:08;100064.03;;;11.94;41.16
55317;BME280;41178;48.956;8.130;2023-12-20T08:24:10;100106.66;;;13.63;38.83
55317;BME280;41178;48.956;8.130;2023-12-20T08:29:15;100060.34;;;13.11;39.57
55317;BME280;41178;48.956;8.130;2023-12-20T08:34:16;100145.66;;;12.66;39.96
55317;BME280;41178;48.956;8.130;2023-12-20T08:39:19;100194.44;;;10.48;42.73
55317;BME280;41178;48.956;8.130;2023-12-20T08:44:20;100211.44;;;11.88;40.50
55317;BME280;41178;48.956;8.130;2023-12-20T08:49:23;100084.09;;;12.86;40.69
55317;BME280;41178;48.956;8.130;2023-12-20T08:54:25;100125.56;;;11.43;42.12
55317;BME280;41178;48.956;8.130;2023-12-20T08:59:27;100168.25;;;10.75;42.71
55317;BME280;41178;48.956;8.130;2023-12-20T09:04:29;100067.53;;;12.46;40.87
55317;BME280;41178;48.956;8.130;2023-12-20T09:09:31;100190.75;;;11.35;42.03
55317;BME280;41178;48.956;8.130;2023-12-20T09:14:33;100216.63;;;10.18;43.88
55317;BME280;41178;48.956;8.130;2023-12-20T09:19:35;100154.28;;;10.88;43.07
55317;BME280;41178;48.956;8.130;2023-12-20T09:24:37;100028.47;;;11.56;43.14
55317;BME280;41178;48.956;8.130;2023-12-20T09:29:40;100054.44;;;11.70;43.10
55317;BME280;41178;48.956;8.130;2023-12-20T09:34:41;100141.69;;;10.97;43.46
55317;BME280;41178;48.956;8.130;2023-12-20T09:39:43;100021.00;;;10.98;44.12
55317;BME280;41178;48.956;8.130;2023-12-20T09:44:45;100057.41;;;11.07;43.74
55317;BME280;41178;48.956;8.130;2023-12-20T09:49:49;99981.09;;;11.03;44.50
55317;BME280;41178;48.956;8.130;2023-12-20T09:54:53;100052.94;;;11.38;43.35
55317;BME280;41178;48.956;8.130;2023-12-20T09:59:56;100067.13;;;10.31;44.67
55317;BME280;41178;48.956;8.130;2023-12-20T10:04:58;99954.72;;;11.30;43.91
55317;BME280;41178;48.956;8.130;2023-12-20T10:10:01;100094.94;;;9.49;45.50
55317;BME280;41178;48.956;8.130;2023-12-20T10:15:04;100062.03;;;10.67;43.64
55317;BME280;41178;48.956;8.130;2023-12-20T10:20:06;100072.72;;;10.76;43.62
55317;BME280;41178;48.956;8.130;2023-12-20T10:25:11;100072.97;;;10.35;44.07
55317;BME280;41178;48.956;8.130;2023-12-20T10:30:14;100088.16;;;10.03;44.18
55317;BME280;41178;48.956;8.130;2023-12-20T10:35:16;100052.41;;;11.04;42.88
55317;BME280;41178;48.956;8.130;2023-12-20T10:40:18;100112.53;;;10.79;42.97
55317;BME280;41178;48.956;8.130;2023-12-20T10:45:20;99982.63;;;11.66;42.66
55317;BME280;41178;48.956;8.130;2023-12-20T10:50:21;100064.28;;;11.40;42.57
55317;BME280;41178;48.956;8.130;2023-12-20T10:55:24;100053.63;;;11.70;42.13
55317;BME280;41178;48.956;8.130;2023-12-20T11:06:43;99875.97;;;8.85;48.26
55317;BME280;41178;48.956;8.130;2023-12-20T11:17:11;99943.63;;;9.25;46.37
55317;BME280;41178;48.956;8.130;2023-12-20T11:22:15;99872.38;;;10.64;45.14
55317;BME280;41178;48.956;8.130;2023-12-20T11:27:18;99838.25;;;10.51;45.16
55317;BME280;41178;48.956;8.130;2023-12-20T11:37:33;99990.66;;;9.26;46.49
55317;BME280;41178;48.956;8.130;2023-12-20T11:42:44;99963.38;;;9.95;45.30
55317;BME280;41178;48.956;8.130;2023-12-20T11:47:47;99959.25;;;9.84;45.01
55317;BME280;41178;48.956;8.130;2023-12-20T11:52:52;100064.16;;;10.80;43.31
55317;BME280;41178;48.956;8.130;2023-12-20T11:57:56;99930.69;;;9.76;45.57
55317;BME280;41178;48.956;8.130;2023-12-20T12:02:58;100045.91;;;9.82;44.85
55317;BME280;41178;48.956;8.130;2023-12-20T12:08:00;100043.00;;;10.62;43.25
55317;BME280;41178;48.956;8.130;2023-12-20T12:13:02;99965.38;;;9.93;44.81
55317;BME280;41178;48.956;8.130;2023-12-20T12:18:04;100116.66;;;8.97;45.23
55317;BME280;41178;48.956;8.130;2023-12-20T12:23:06;100000.66;;;10.20;44.29
55317;BME280;41178;48.956;8.130;2023-12-20T12:28:08;100063.81;;;10.52;42.98
55317;BME280;41178;48.956;8.130;2023-12-20T12:33:10;100032.88;;;9.39;44.83
55317;BME280;41178;48.956;8.130;2023-12-20T12:38:13;99912.28;;;10.74;43.89
55317;BME280;41178;48.956;8.130;2023-12-20T12:43:14;100076.53;;;9.87;44.08
55317;BME280;41178;48.956;8.130;2023-12-20T12:48:16;99898.19;;;11.25;43.12
55317;BME280;41178;48.956;8.130;2023-12-20T12:53:18;99961.00;;;11.07;42.80
55317;BME280;41178;48.956;8.130;2023-12-20T12:58:19;99946.50;;;9.94;44.77
55317;BME280;41178;48.956;8.130;2023-12-20T13:03:21;99880.38;;;11.17;43.45
55317;BME280;41178;48.956;8.130;2023-12-20T13:08:23;100010.03;;;9.84;44.59
55317;BME280;41178;48.956;8.130;2023-12-20T13:13:24;99986.41;;;10.50;43.43
55317;BME280;41178;48.956;8.130;2023-12-20T13:18:26;99909.38;;;10.00;45.14
55317;BME280;41178;48.956;8.130;2023-12-20T13:23:28;99829.66;;;10.56;44.89
55317;BME280;41178;48.956;8.130;2023-12-20T13:28:29;99895.09;;;11.58;42.45
55317;BME280;41178;48.956;8.130;2023-12-20T13:33:31;100041.94;;;10.72;42.93
55317;BME280;41178;48.956;8.130;2023-12-20T13:38:33;100029.09;;;10.44;43.56
55317;BME280;41178;48.956;8.130;2023-12-20T13:43:35;100077.66;;;9.93;43.70
55317;BME280;41178;48.956;8.130;2023-12-20T13:48:36;99911.31;;;11.35;42.61
55317;BME280;41178;48.956;8.130;2023-12-20T13:53:39;100050.41;;;9.42;44.72
55317;BME280;41178;48.956;8.130;2023-12-20T13:58:41;99987.69;;;9.69;44.55
55317;BME280;41178;48.956;8.130;2023-12-20T14:03:47;99876.94;;;11.38;42.90
55317;BME280;41178;48.956;8.130;2023-12-20T14:08:49;99959.88;;;10.64;43.34
55317;BME280;41178;48.956;8.130;2023-12-20T14:13:51;99928.81;;;11.52;42.05
55317;BME280;41178;48.956;8.130;2023-12-20T14:18:52;99871.06;;;10.45;44.05
55317;BME280;41178;48.956;8.130;2023-12-20T14:23:54;100041.53;;;9.97;44.13
55317;BME280;41178;48.956;8.130;2023-12-20T14:28:56;99936.34;;;11.12;42.89
55317;BME280;41178;48.956;8.130;2023-12-20T14:33:57;99984.31;;;9.75;44.88
55317;BME280;41178;48.956;8.130;2023-12-20T14:39:00;99880.66;;;11.59;42.47
55317;BME280;41178;48.956;8.130;2023-12-20T14:44:02;99893.06;;;10.70;44.07
55317;BME280;41178;48.956;8.130;2023-12-20T14:49:06;99901.44;;;10.91;44.07
55317;BME280;41178;48.956;8.130;2023-12-20T14:54:08;99893.69;;;11.25;43.06
55317;BME280;41178;48.956;8.130;2023-12-20T14:59:11;99839.94;;;11.49;43.44
55317;BME280;41178;48.956;8.130;2023-12-20T15:04:13;99861.72;;;10.94;43.73
55317;BME280;41178;48.956;8.130;2023-12-20T15:09:15;100083.09;;;9.52;44.33
55317;BME280;41178;48.956;8.130;2023-12-20T15:14:17;100036.84;;;9.43;45.04
55317;BME280;41178;48.956;8.130;2023-12-20T15:19:21;99945.69;;;9.94;44.30
55317;BME280;41178;48.956;8.130;2023-12-20T15:24:23;99948.69;;;8.95;45.42
55317;BME280;41178;48.956;8.130;2023-12-20T15:29:29;99935.00;;;9.46;45.38
55317;BME280;41178;48.956;8.130;2023-12-20T15:34:32;99824.47;;;10.02;45.08
55317;BME280;41178;48.956;8.130;2023-12-20T15:39:34;99978.53;;;10.03;43.98
55317;BME280;41178;48.956;8.130;2023-12-20T15:44:35;99966.03;;;9.95;44.32
55317;BME280;41178;48.956;8.130;2023-12-20T15:49:38;99826.72;;;11.47;42.64
55317;BME280;41178;48.956;8.130;2023-12-20T15:54:40;99905.09;;;10.75;43.04
55317;BME280;41178;48.956;8.130;2023-12-20T15:59:43;99908.53;;;11.13;42.54
55317;BME280;41178;48.956;8.130;2023-12-20T16:04:45;99908.28;;;10.55;43.39
55317;BME280;41178;48.956;8.130;2023-12-20T16:09:47;99950.59;;;11.94;40.83
55317;BME280;41178;48.956;8.130;2023-12-20T16:14:49;99908.28;;;12.54;40.50
55317;BME280;41178;48.956;8.130;2023-12-20T16:19:50;99958.69;;;11.64;41.21
55317;BME280;41178;48.956;8.130;2023-12-20T16:24:53;99859.16;;;9.24;45.47
55317;BME280;41178;48.956;8.130;2023-12-20T16:29:57;99841.09;;;8.95;46.10
55317;BME280;41178;48.956;8.130;2023-12-20T16:35:00;99917.78;;;9.09;45.42
55317;BME280;41178;48.956;8.130;2023-12-20T16:40:05;99865.38;;;9.48;45.53
55317;BME280;41178;48.956;8.130;2023-12-20T16:45:07;99866.31;;;11.30;42.55
55317;BME280;41178;48.956;8.130;2023-12-20T16:50:09;99902.53;;;10.43;43.79
55317;BME280;41178;48.956;8.130;2023-12-20T16:55:11;99921.00;;;11.36;42.28
55317;BME280;41178;48.956;8.130;2023-12-20T17:00:13;99996.81;;;8.03;46.64
55317;BME280;41178;48.956;8.130;2023-12-20T17:05:15;99885.00;;;11.60;42.76
55317;BME280;41178;48.956;8.130;2023-12-20T17:10:17;99786.81;;;9.88;45.68
55317;BME280;41178;48.956;8.130;2023-12-20T17:15:19;99813.31;;;11.25;43.26
55317;BME280;41178;48.956;8.130;2023-12-20T17:20:21;99913.34;;;8.93;46.20
55317;BME280;41178;48.956;8.130;2023-12-20T17:25:23;99956.25;;;10.33;43.54
55317;BME280;41178;48.956;8.130;2023-12-20T17:30:24;99822.09;;;11.19;42.92
55317;BME280;41178;48.956;8.130;2023-12-20T17:35:26;99912.72;;;9.31;45.03
55317;BME280;41178;48.956;8.130;2023-12-20T17:40:28;99902.31;;;10.30;43.71
55317;BME280;41178;48.956;8.130;2023-12-20T17:45:29;99930.31;;;10.57;43.57
55317;BME280;41178;48.956;8.130;2023-12-20T17:50:31;99900.94;;;9.48;45.22
55317;BME280;41178;48.956;8.130;2023-12-20T17:55:33;99848.88;;;11.04;43.32
55317;BME280;41178;48.956;8.130;2023-12-20T18:00:35;99875.13;;;10.41;44.08
55317;BME280;41178;48.956;8.130;2023-12-20T18:05:37;99990.31;;;11.39;42.22
55317;BME280;41178;48.956;8.130;2023-12-20T18:10:38;99943.16;;;10.62;43.05
55317;BME280;41178;48.956;8.130;2023-12-20T18:15:40;99891.78;;;12.14;41.27
55317;BME280;41178;48.956;8.130;2023-12-20T18:20:42;99972.63;;;11.15;42.23
55317;BME280;41178;48.956;8.130;2023-12-20T18:25:44;99954.69;;;11.15;42.58
55317;BME280;41178;48.956;8.130;2023-12-20T18:30:45;99923.88;;;11.19;42.53
55317;BME280;41178;48.956;8.130;2023-12-20T18:35:47;100050.44;;;10.52;42.80
55317;BME280;41178;48.956;8.130;2023-12-20T18:40:49;99984.84;;;10.10;44.21
55317;BME280;41178;48.956;8.130;2023-12-20T18:45:51;99938.25;;;10.50;43.81
55317;BME280;41178;48.956;8.130;2023-12-20T18:50:53;99967.31;;;10.30;43.73
55317;BME280;41178;48.956;8.130;2023-12-20T18:55:55;99867.59;;;10.22;44.68
55317;BME280;41178;48.956;8.130;2023-12-20T19:00:57;99884.88;;;9.56;45.36
55317;BME280;41178;48.956;8.130;2023-12-20T19:05:59;99751.06;;;9.89;46.19
55317;BME280;41178;48.956;8.130;2023-12-20T19:11:03;99939.81;;;9.90;44.52
55317;BME280;41178;48.956;8.130;2023-12-20T19:16:05;99840.25;;;10.35;45.40
55317;BME280;41178;48.956;8.130;2023-12-20T19:21:07;99747.47;;;8.57;48.37
55317;BME280;41178;48.956;8.130;2023-12-20T19:26:10;99819.63;;;10.73;44.36
55317;BME280;41178;48.956;8.130;2023-12-20T19:31:13;99674.63;;;10.69;45.09
55317;BME280;41178;48.956;8.130;2023-12-20T19:36:16;99850.31;;;10.09;45.18
55317;BME280;41178;48.956;8.130;2023-12-20T19:41:17;99723.69;;;9.41;46.66
55317;BME280;41178;48.956;8.130;2023-12-20T19:46:19;99680.81;;;10.85;44.83
55317;BME280;41178;48.956;8.130;2023-12-20T19:51:21;99926.94;;;9.63;45.13
55317;BME280;41178;48.956;8.130;2023-12-20T19:56:23;99716.16;;;10.65;45.09
55317;BME280;41178;48.956;8.130;2023-12-20T20:01:24;99704.84;;;10.33;45.82
55317;BME280;41178;48.956;8.130;2023-12-20T20:06:26;99939.66;;;7.55;48.21
55317;BME280;41178;48.956;8.130;2023-12-20T20:11:28;99720.59;;;9.06;47.31
55317;BME280;41178;48.956;8.130;2023-12-20T20:16:36;99796.13;;;9.46;46.07
55317;BME280;41178;48.956;8.130;2023-12-20T20:21:37;99705.72;;;10.70;44.37
55317;BME280;41178;48.956;8.130;2023-12-20T20:26:39;99982.81;;;7.67;47.04
55317;BME280;41178;48.956;8.130;2023-12-20T20:31:41;99766.66;;;10.83;43.80
55317;BME280;41178;48.956;8.130;2023-12-20T20:36:43;99667.25;;;9.21;47.25
55317;BME280;41178;48.956;8.130;2023-12-20T20:41:44;99829.94;;;10.61;44.11
55317;BME280;41178;48.956;8.130;2023-12-20T20:46:46;99710.81;;;10.36;44.64
55317;BME280;41178;48.956;8.130;2023-12-20T20:51:48;99818.38;;;10.31;44.08
55317;BME280;41178;48.956;8.130;2023-12-20T20:56:50;99661.03;;;10.20;46.05
55317;BME280;41178;48.956;8.130;2023-12-20T21:01:51;99640.25;;;10.51;45.46
55317;BME280;41178;48.956;8.130;2023-12-20T21:06:53;99677.00;;;10.13;45.69
55317;BME280;41178;48.956;8.130;2023-12-20T21:11:55;99745.97;;;9.02;46.76
55317;BME280;41178;48.956;8.130;2023-12-20T21:16:57;99646.97;;;10.47;45.09
55317;BME280;41178;48.956;8.130;2023-12-20T21:21:58;99610.00;;;9.76;46.35
55317;BME280;41178;48.956;8.130;2023-12-20T21:27:00;99667.69;;;8.87;47.34
55317;BME280;41178;48.956;8.130;2023-12-20T21:32:03;99684.22;;;9.51;46.20
55317;BME280;41178;48.956;8.130;2023-12-20T21:37:05;99737.59;;;8.65;47.37
55317;BME280;41178;48.956;8.130;2023-12-20T21:42:07;99665.78;;;9.80;45.73
55317;BME280;41178;48.956;8.130;2023-12-20T21:47:10;99542.94;;;9.56;47.39
55317;BME280;41178;48.956;8.130;2023-12-20T21:52:11;99588.94;;;7.72;50.03
55317;BME280;41178;48.956;8.130;2023-12-20T21:57:13;99618.25;;;8.28;48.81
55317;BME280;41178;48.956;8.130;2023-12-20T22:02:15;99796.00;;;6.86;50.31
55317;BME280;41178;48.956;8.130;2023-12-20T22:07:16;99633.19;;;8.45;48.65
55317;BME280;41178;48.956;8.130;2023-12-20T22:12:19;99550.59;;;9.74;46.82
55317;BME280;41178;48.956;8.130;2023-12-20T22:17:21;99611.16;;;9.44;47.18
55317;BME280;41178;48.956;8.130;2023-12-20T22:22:23;99712.38;;;8.37;48.42
55317;BME280;41178;48.956;8.130;2023-12-20T22:27:25;99764.59;;;7.82;48.61
55317;BME280;41178;48.956;8.130;2023-12-20T22:32:27;99520.47;;;9.51;47.91
55317;BME280;41178;48.956;8.130;2023-12-20T22:37:29;99523.03;;;9.44;47.50
55317;BME280;41178;48.956;8.130;2023-12-20T22:42:31;99550.34;;;9.31;47.49
55317;BME280;41178;48.956;8.130;2023-12-20T22:47:33;99597.78;;;8.91;47.85
55317;BME280;41178;48.956;8.130;2023-12-20T22:52:34;99671.09;;;10.18;45.24
55317;BME280;41178;48.956;8.130;2023-12-20T22:57:36;99519.41;;;9.07;48.37
55317;BME280;41178;48.956;8.130;2023-12-20T23:02:38;99676.00;;;7.96;48.28
55317;BME280;41178;48.956;8.130;2023-12-20T23:07:39;99764.47;;;7.08;49.82
55317;BME280;41178;48.956;8.130;2023-12-20T23:12:41;99596.53;;;10.44;45.27
55317;BME280;41178;48.956;8.130;2023-12-20T23:17:43;99619.69;;;9.25;47.27
55317;BME280;41178;48.956;8.130;2023-12-20T23:22:45;99635.94;;;10.36;45.16
55317;BME280;41178;48.956;8.130;2023-12-20T23:27:46;99712.22;;;9.09;47.00
55317;BME280;41178;48.956;8.130;2023-12-20T23:32:51;99524.97;;;10.10;47.17
55317;BME280;41178;48.956;8.130;2023-12-20T23:37:53;99638.97;;;11.20;44.32
55317;BME280;41178;48.956;8.130;2023-12-20T23:42:55;99450.56;;;10.78;46.24
55317;BME280;41178;48.956;8.130;2023-12-20T23:47:56;99487.50;;;10.46;46.39
55317;BME280;41178;48.956;8.130;2023-12-20T23:52:58;99484.78;;;8.99;48.89
55317;BME280;41178;48.956;8.130;2023-12-20T23:58:00;99556.47;;;8.56;49.27
